sensor_id;sensor_type;location;lat;lon;timestamp;pressure;altitude;pressure_sealevel;temperature;humidity
24788;BME280;12883;52.662;5.196;2023-04-19T00:01:57;102914.09;;;10.27;100.00
24788;BME280;12883;52.662;5.196;2023-04-19T00:04:23;102916.31;;;10.32;100.00
24788;BME280;12883;52.662;5.196;2023-04-19T00:06:49;102963.13;;;10.60;100.00
24788;BME280;12883;52.662;5.196;2023-04-19T00:09:16;102955.63;;;10.46;100.00
24788;BME280;12883;52.662;5.196;2023-04-19T00:11:41;102561.44;;;8.28;100.00
24788;BME280;12883;52.662;5.196;2023-04-19T00:14:06;102930.81;;;10.28;100.00
24788;BME280;12883;52.662;5.196;2023-04-19T00:16:31;102958.09;;;10.57;100.00
24788;BME280;12883;52.662;5.196;2023-04-19T00:18:57;102819.16;;;9.75;100.00
24788;BME280;12883;52.662;5.196;2023-04-19T00:21:23;102930.56;;;10.31;100.00
24788;BME280;12883;52.662;5.196;2023-04-19T00:23:48;102892.19;;;10.16;100.00
24788;BME280;12883;52.662;5.196;2023-04-19T00:26:14;102975.56;;;10.50;100.00
24788;BME280;12883;52.662;5.196;2023-04-19T00:28:42;102718.25;;;9.04;100.00
24788;BME280;12883;52.662;5.196;2023-04-19T00:31:07;102837.19;;;9.72;100.00
24788;BME280;12883;52.662;5.196;2023-04-19T00:33:33;102923.63;;;10.11;100.00
24788;BME280;12883;52.662;5.196;2023-04-19T00:35:58;102909.91;;;10.25;100.00
24788;BME280;12883;52.662;5.196;2023-04-19T00:38:24;102957.16;;;10.48;100.00
24788;BME280;12883;52.662;5.196;2023-04-19T00:40:49;102902.41;;;10.11;100.00
24788;BME280;12883;52.662;5.196;2023-04-19T00:43:18;102928.94;;;10.11;100.00
24788;BME280;12883;52.662;5.196;2023-04-19T00:45:44;102963.31;;;10.39;100.00
24788;BME280;12883;52.662;5.196;2023-04-19T00:48:11;102880.69;;;9.79;100.00
24788;BME280;12883;52.662;5.196;2023-04-19T00:50:37;102731.13;;;8.99;100.00
24788;BME280;12883;52.662;5.196;2023-04-19T00:53:03;102913.28;;;10.17;100.00
24788;BME280;12883;52.662;5.196;2023-04-19T00:55:28;102914.97;;;10.09;100.00
24788;BME280;12883;52.662;5.196;2023-04-19T00:57:53;102937.53;;;10.32;100.00
24788;BME280;12883;52.662;5.196;2023-04-19T01:00:19;102916.94;;;10.07;100.00
24788;BME280;12883;52.662;5.196;2023-04-19T01:02:45;102846.66;;;9.74;100.00
24788;BME280;12883;52.662;5.196;2023-04-19T01:05:11;102780.50;;;9.37;100.00
24788;BME280;12883;52.662;5.196;2023-04-19T01:07:36;102950.69;;;10.24;100.00
24788;BME280;12883;52.662;5.196;2023-04-19T01:10:02;102790.69;;;9.41;100.00
24788;BME280;12883;52.662;5.196;2023-04-19T01:12:27;102958.25;;;10.09;100.00
24788;BME280;12883;52.662;5.196;2023-04-19T01:14:53;102894.47;;;10.11;100.00
24788;BME280;12883;52.662;5.196;2023-04-19T01:17:18;102585.78;;;8.03;100.00
24788;BME280;12883;52.662;5.196;2023-04-19T01:19:44;102594.72;;;8.30;100.00
24788;BME280;12883;52.662;5.196;2023-04-19T01:22:20;102889.63;;;9.87;100.00
24788;BME280;12883;52.662;5.196;2023-04-19T01:24:49;102873.25;;;9.92;100.00
24788;BME280;12883;52.662;5.196;2023-04-19T01:27:15;102882.31;;;10.08;100.00
24788;BME280;12883;52.662;5.196;2023-04-19T01:29:41;102499.97;;;7.69;100.00
24788;BME280;12883;52.662;5.196;2023-04-19T01:32:07;102884.78;;;9.64;100.00
24788;BME280;12883;52.662;5.196;2023-04-19T01:34:32;102863.34;;;9.94;100.00
24788;BME280;12883;52.662;5.196;2023-04-19T01:36:57;102591.53;;;8.27;100.00
24788;BME280;12883;52.662;5.196;2023-04-19T01:39:24;102788.19;;;9.40;100.00
24788;BME280;12883;52.662;5.196;2023-04-19T01:41:50;102784.75;;;9.01;100.00
24788;BME280;12883;52.662;5.196;2023-04-19T01:44:15;102698.81;;;8.86;100.00
24788;BME280;12883;52.662;5.196;2023-04-19T01:46:41;102907.72;;;10.01;100.00
24788;BME280;12883;52.662;5.196;2023-04-19T01:49:07;102865.31;;;9.92;100.00
24788;BME280;12883;52.662;5.196;2023-04-19T01:51:32;102927.78;;;10.23;100.00
24788;BME280;12883;52.662;5.196;2023-04-19T01:53:58;102890.72;;;10.04;100.00
24788;BME280;12883;52.662;5.196;2023-04-19T01:56:23;102804.31;;;9.55;100.00
24788;BME280;12883;52.662;5.196;2023-04-19T01:58:49;102901.19;;;9.96;100.00
24788;BME280;12883;52.662;5.196;2023-04-19T02:01:14;102901.19;;;9.96;100.00
24788;BME280;12883;52.662;5.196;2023-04-19T02:03:40;102790.53;;;9.33;100.00
24788;BME280;12883;52.662;5.196;2023-04-19T02:06:09;102792.38;;;9.23;100.00
24788;BME280;12883;52.662;5.196;2023-04-19T02:08:36;102898.78;;;10.02;100.00
24788;BME280;12883;52.662;5.196;2023-04-19T02:11:06;102827.72;;;9.60;100.00
24788;BME280;12883;52.662;5.196;2023-04-19T02:13:31;102931.28;;;10.14;100.00
24788;BME280;12883;52.662;5.196;2023-04-19T02:15:57;102905.34;;;10.08;100.00
24788;BME280;12883;52.662;5.196;2023-04-19T02:18:22;102888.16;;;10.02;100.00
24788;BME280;12883;52.662;5.196;2023-04-19T02:20:48;102847.88;;;9.44;100.00
24788;BME280;12883;52.662;5.196;2023-04-19T02:23:14;102733.88;;;9.17;100.00
24788;BME280;12883;52.662;5.196;2023-04-19T02:25:39;102891.53;;;10.04;100.00
24788;BME280;12883;52.662;5.196;2023-04-19T02:28:05;102884.63;;;9.75;100.00
24788;BME280;12883;52.662;5.196;2023-04-19T02:30:30;102870.47;;;9.93;100.00
24788;BME280;12883;52.662;5.196;2023-04-19T02:32:56;102930.16;;;10.26;100.00
24788;BME280;12883;52.662;5.196;2023-04-19T02:35:22;102856.16;;;9.77;100.00
24788;BME280;12883;52.662;5.196;2023-04-19T02:37:48;102788.50;;;9.27;100.00
24788;BME280;12883;52.662;5.196;2023-04-19T02:40:13;102901.88;;;9.98;100.00
24788;BME280;12883;52.662;5.196;2023-04-19T02:42:38;102845.88;;;9.64;100.00
24788;BME280;12883;52.662;5.196;2023-04-19T02:45:04;102913.91;;;9.83;100.00
24788;BME280;12883;52.662;5.196;2023-04-19T02:47:30;102871.97;;;9.59;100.00
24788;BME280;12883;52.662;5.196;2023-04-19T02:49:55;102924.06;;;9.97;100.00
24788;BME280;12883;52.662;5.196;2023-04-19T02:52:20;102917.38;;;9.93;100.00
24788;BME280;12883;52.662;5.196;2023-04-19T02:54:46;102867.34;;;9.52;100.00
24788;BME280;12883;52.662;5.196;2023-04-19T02:57:12;102907.94;;;9.71;100.00
24788;BME280;12883;52.662;5.196;2023-04-19T02:59:37;102685.47;;;8.40;100.00
24788;BME280;12883;52.662;5.196;2023-04-19T03:02:03;102853.97;;;9.44;100.00
24788;BME280;12883;52.662;5.196;2023-04-19T03:04:28;102944.16;;;9.99;100.00
24788;BME280;12883;52.662;5.196;2023-04-19T03:06:55;102902.63;;;9.71;100.00
24788;BME280;12883;52.662;5.196;2023-04-19T03:09:20;102965.22;;;10.01;100.00
24788;BME280;12883;52.662;5.196;2023-04-19T03:11:46;102832.41;;;9.20;100.00
24788;BME280;12883;52.662;5.196;2023-04-19T03:14:11;102800.34;;;9.04;100.00
24788;BME280;12883;52.662;5.196;2023-04-19T03:16:36;102883.56;;;9.49;100.00
24788;BME280;12883;52.662;5.196;2023-04-19T03:19:02;102920.66;;;9.49;100.00
24788;BME280;12883;52.662;5.196;2023-04-19T03:21:27;102928.72;;;9.57;100.00
24788;BME280;12883;52.662;5.196;2023-04-19T03:23:56;102817.91;;;8.86;100.00
24788;BME280;12883;52.662;5.196;2023-04-19T03:26:21;102451.56;;;6.62;100.00
24788;BME280;12883;52.662;5.196;2023-04-19T03:28:47;102945.38;;;8.72;100.00
24788;BME280;12883;52.662;5.196;2023-04-19T03:31:12;102691.97;;;8.17;100.00
24788;BME280;12883;52.662;5.196;2023-04-19T03:33:38;102824.88;;;8.87;100.00
24788;BME280;12883;52.662;5.196;2023-04-19T03:36:04;102943.22;;;9.53;100.00
24788;BME280;12883;52.662;5.196;2023-04-19T03:38:30;102895.00;;;9.21;100.00
24788;BME280;12883;52.662;5.196;2023-04-19T03:40:55;102789.31;;;8.52;100.00
24788;BME280;12883;52.662;5.196;2023-04-19T03:43:22;102849.28;;;8.91;100.00
24788;BME280;12883;52.662;5.196;2023-04-19T03:45:48;102848.56;;;9.08;100.00
24788;BME280;12883;52.662;5.196;2023-04-19T03:48:14;102787.66;;;8.51;100.00
24788;BME280;12883;52.662;5.196;2023-04-19T03:50:39;102831.28;;;8.75;100.00
24788;BME280;12883;52.662;5.196;2023-04-19T03:53:05;102745.06;;;8.54;100.00
24788;BME280;12883;52.662;5.196;2023-04-19T03:55:30;102841.59;;;8.97;100.00
24788;BME280;12883;52.662;5.196;2023-04-19T03:57:56;102932.50;;;9.45;100.00
24788;BME280;12883;52.662;5.196;2023-04-19T04:00:21;102920.34;;;9.43;100.00
24788;BME280;12883;52.662;5.196;2023-04-19T04:02:46;102931.69;;;9.45;100.00
24788;BME280;12883;52.662;5.196;2023-04-19T04:05:12;102748.53;;;8.45;100.00
24788;BME280;12883;52.662;5.196;2023-04-19T04:07:37;102885.94;;;9.14;100.00
24788;BME280;12883;52.662;5.196;2023-04-19T04:10:03;102924.41;;;9.18;100.00
24788;BME280;12883;52.662;5.196;2023-04-19T04:12:29;102828.50;;;9.05;100.00
24788;BME280;12883;52.662;5.196;2023-04-19T04:14:54;102942.53;;;9.51;100.00
24788;BME280;12883;52.662;5.196;2023-04-19T04:17:20;102922.31;;;9.41;100.00
24788;BME280;12883;52.662;5.196;2023-04-19T04:19:45;102868.50;;;9.12;100.00
24788;BME280;12883;52.662;5.196;2023-04-19T04:22:10;102805.53;;;8.68;100.00
24788;BME280;12883;52.662;5.196;2023-04-19T04:24:39;102963.91;;;9.40;100.00
24788;BME280;12883;52.662;5.196;2023-04-19T04:27:08;102962.19;;;9.67;100.00
24788;BME280;12883;52.662;5.196;2023-04-19T04:29:35;102953.56;;;9.37;100.00
24788;BME280;12883;52.662;5.196;2023-04-19T04:32:01;102585.78;;;7.25;100.00
24788;BME280;12883;52.662;5.196;2023-04-19T04:34:27;102989.56;;;9.68;100.00
24788;BME280;12883;52.662;5.196;2023-04-19T04:36:52;102966.94;;;9.64;100.00
24788;BME280;12883;52.662;5.196;2023-04-19T04:39:18;102989.41;;;9.60;100.00
24788;BME280;12883;52.662;5.196;2023-04-19T04:41:43;102926.50;;;9.34;100.00
24788;BME280;12883;52.662;5.196;2023-04-19T04:44:08;102956.50;;;9.44;100.00
24788;BME280;12883;52.662;5.196;2023-04-19T04:46:36;102903.44;;;8.87;100.00
24788;BME280;12883;52.662;5.196;2023-04-19T04:49:01;102913.09;;;9.07;100.00
24788;BME280;12883;52.662;5.196;2023-04-19T04:51:27;102977.97;;;9.50;100.00
24788;BME280;12883;52.662;5.196;2023-04-19T04:53:52;102963.53;;;9.05;100.00
24788;BME280;12883;52.662;5.196;2023-04-19T04:56:18;102893.59;;;8.89;100.00
24788;BME280;12883;52.662;5.196;2023-04-19T04:58:44;102987.31;;;9.54;100.00
24788;BME280;12883;52.662;5.196;2023-04-19T05:01:09;102940.13;;;9.10;100.00
24788;BME280;12883;52.662;5.196;2023-04-19T05:03:34;102896.38;;;8.97;100.00
24788;BME280;12883;52.662;5.196;2023-04-19T05:06:00;102952.44;;;9.30;100.00
24788;BME280;12883;52.662;5.196;2023-04-19T05:08:25;102966.09;;;9.35;100.00
24788;BME280;12883;52.662;5.196;2023-04-19T05:10:51;102936.50;;;8.92;100.00
24788;BME280;12883;52.662;5.196;2023-04-19T05:13:16;102747.56;;;7.97;100.00
24788;BME280;12883;52.662;5.196;2023-04-19T05:15:42;102901.66;;;8.87;100.00
24788;BME280;12883;52.662;5.196;2023-04-19T05:18:07;102865.38;;;8.59;100.00
24788;BME280;12883;52.662;5.196;2023-04-19T05:20:33;102882.88;;;8.41;100.00
24788;BME280;12883;52.662;5.196;2023-04-19T05:23:01;102825.75;;;8.20;100.00
24788;BME280;12883;52.662;5.196;2023-04-19T05:25:28;102987.13;;;9.08;100.00
24788;BME280;12883;52.662;5.196;2023-04-19T05:27:53;102778.50;;;8.06;100.00
24788;BME280;12883;52.662;5.196;2023-04-19T05:30:19;102988.97;;;9.27;100.00
24788;BME280;12883;52.662;5.196;2023-04-19T05:32:44;102960.75;;;8.97;100.00
24788;BME280;12883;52.662;5.196;2023-04-19T05:35:10;102941.81;;;8.92;100.00
24788;BME280;12883;52.662;5.196;2023-04-19T05:37:36;102971.88;;;8.82;100.00
24788;BME280;12883;52.662;5.196;2023-04-19T05:40:03;103004.00;;;9.17;100.00
24788;BME280;12883;52.662;5.196;2023-04-19T05:42:30;102862.44;;;8.53;100.00
24788;BME280;12883;52.662;5.196;2023-04-19T05:44:55;103007.38;;;9.28;100.00
24788;BME280;12883;52.662;5.196;2023-04-19T05:47:20;102961.59;;;8.98;100.00
24788;BME280;12883;52.662;5.196;2023-04-19T05:49:46;102959.03;;;8.87;100.00
24788;BME280;12883;52.662;5.196;2023-04-19T05:52:11;102919.75;;;8.82;100.00
24788;BME280;12883;52.662;5.196;2023-04-19T05:54:37;102922.09;;;8.66;100.00
24788;BME280;12883;52.662;5.196;2023-04-19T05:57:02;102948.47;;;8.96;100.00
24788;BME280;12883;52.662;5.196;2023-04-19T05:59:28;102967.31;;;9.03;100.00
24788;BME280;12883;52.662;5.196;2023-04-19T06:01:53;102978.31;;;9.08;100.00
24788;BME280;12883;52.662;5.196;2023-04-19T06:04:20;102961.31;;;9.10;100.00
24788;BME280;12883;52.662;5.196;2023-04-19T06:06:45;102963.28;;;9.08;100.00
24788;BME280;12883;52.662;5.196;2023-04-19T06:09:11;102975.00;;;9.15;100.00
24788;BME280;12883;52.662;5.196;2023-04-19T06:11:37;102812.88;;;8.06;100.00
24788;BME280;12883;52.662;5.196;2023-04-19T06:14:03;102962.75;;;9.14;100.00
24788;BME280;12883;52.662;5.196;2023-04-19T06:16:29;103009.03;;;9.20;100.00
24788;BME280;12883;52.662;5.196;2023-04-19T06:18:55;102856.44;;;8.51;100.00
24788;BME280;12883;52.662;5.196;2023-04-19T06:21:20;102597.97;;;6.87;100.00
24788;BME280;12883;52.662;5.196;2023-04-19T06:23:46;102954.47;;;8.89;100.00
24788;BME280;12883;52.662;5.196;2023-04-19T06:26:11;102993.28;;;9.28;100.00
24788;BME280;12883;52.662;5.196;2023-04-19T06:28:37;102918.38;;;8.97;100.00
24788;BME280;12883;52.662;5.196;2023-04-19T06:31:03;102996.75;;;9.19;100.00
24788;BME280;12883;52.662;5.196;2023-04-19T06:33:29;102959.41;;;9.31;100.00
24788;BME280;12883;52.662;5.196;2023-04-19T06:35:54;102908.91;;;9.04;100.00
24788;BME280;12883;52.662;5.196;2023-04-19T06:38:19;102521.19;;;6.50;100.00
24788;BME280;12883;52.662;5.196;2023-04-19T06:40:45;102986.47;;;9.44;100.00
24788;BME280;12883;52.662;5.196;2023-04-19T06:43:10;102976.53;;;9.37;100.00
24788;BME280;12883;52.662;5.196;2023-04-19T06:45:36;102943.94;;;9.27;100.00
24788;BME280;12883;52.662;5.196;2023-04-19T06:48:01;102977.41;;;9.37;100.00
24788;BME280;12883;52.662;5.196;2023-04-19T06:50:26;102881.31;;;8.97;100.00
24788;BME280;12883;52.662;5.196;2023-04-19T06:52:52;102915.75;;;9.16;100.00
24788;BME280;12883;52.662;5.196;2023-04-19T06:55:18;103009.50;;;9.81;100.00
24788;BME280;12883;52.662;5.196;2023-04-19T06:57:43;103034.59;;;9.96;100.00
24788;BME280;12883;52.662;5.196;2023-04-19T07:00:09;102919.53;;;9.42;100.00
24788;BME280;12883;52.662;5.196;2023-04-19T07:02:35;102878.66;;;9.07;100.00
24788;BME280;12883;52.662;5.196;2023-04-19T07:05:01;103033.38;;;10.10;100.00
24788;BME280;12883;52.662;5.196;2023-04-19T07:07:26;102843.81;;;9.02;100.00
24788;BME280;12883;52.662;5.196;2023-04-19T07:09:52;103011.84;;;9.94;100.00
24788;BME280;12883;52.662;5.196;2023-04-19T07:12:17;102630.56;;;7.95;100.00
24788;BME280;12883;52.662;5.196;2023-04-19T07:14:42;102902.53;;;9.35;100.00
24788;BME280;12883;52.662;5.196;2023-04-19T07:17:08;102979.75;;;9.97;100.00
24788;BME280;12883;52.662;5.196;2023-04-19T07:19:33;103001.66;;;9.99;100.00
24788;BME280;12883;52.662;5.196;2023-04-19T07:21:59;102976.13;;;9.88;100.00
24788;BME280;12883;52.662;5.196;2023-04-19T07:24:25;102933.72;;;9.69;100.00
24788;BME280;12883;52.662;5.196;2023-04-19T07:26:53;102978.06;;;10.05;100.00
24788;BME280;12883;52.662;5.196;2023-04-19T07:29:19;102984.34;;;10.14;100.00
24788;BME280;12883;52.662;5.196;2023-04-19T07:31:44;102922.53;;;9.85;100.00
24788;BME280;12883;52.662;5.196;2023-04-19T07:34:10;102992.59;;;10.01;100.00
24788;BME280;12883;52.662;5.196;2023-04-19T07:36:35;102980.91;;;10.04;98.86
24788;BME280;12883;52.662;5.196;2023-04-19T07:39:02;102932.16;;;9.95;99.66
24788;BME280;12883;52.662;5.196;2023-04-19T07:41:29;102952.41;;;10.06;100.00
24788;BME280;12883;52.662;5.196;2023-04-19T07:43:54;103011.06;;;10.49;99.06
24788;BME280;12883;52.662;5.196;2023-04-19T07:46:20;102995.59;;;10.44;97.62
24788;BME280;12883;52.662;5.196;2023-04-19T07:48:45;102941.63;;;10.17;95.57
24788;BME280;12883;52.662;5.196;2023-04-19T07:51:11;102991.41;;;10.42;94.49
24788;BME280;12883;52.662;5.196;2023-04-19T07:53:38;102929.19;;;10.17;94.34
24788;BME280;12883;52.662;5.196;2023-04-19T07:56:05;103023.97;;;10.71;93.23
24788;BME280;12883;52.662;5.196;2023-04-19T07:58:30;102974.22;;;10.46;94.52
24788;BME280;12883;52.662;5.196;2023-04-19T08:00:56;102923.91;;;10.08;92.44
24788;BME280;12883;52.662;5.196;2023-04-19T08:03:21;102948.88;;;10.15;90.11
24788;BME280;12883;52.662;5.196;2023-04-19T08:05:47;102965.44;;;10.36;90.43
24788;BME280;12883;52.662;5.196;2023-04-19T08:08:12;102984.16;;;10.44;91.37
24788;BME280;12883;52.662;5.196;2023-04-19T08:10:37;102939.31;;;10.41;90.13
24788;BME280;12883;52.662;5.196;2023-04-19T08:13:03;102988.22;;;10.65;90.27
24788;BME280;12883;52.662;5.196;2023-04-19T08:15:28;102857.13;;;9.85;88.52
24788;BME280;12883;52.662;5.196;2023-04-19T08:17:53;102965.97;;;10.76;88.79
24788;BME280;12883;52.662;5.196;2023-04-19T08:20:19;102724.06;;;9.27;86.23
24788;BME280;12883;52.662;5.196;2023-04-19T08:22:46;103017.09;;;11.05;86.42
24788;BME280;12883;52.662;5.196;2023-04-19T08:25:12;102948.41;;;10.65;84.87
24788;BME280;12883;52.662;5.196;2023-04-19T08:27:37;102916.50;;;10.48;85.36
24788;BME280;12883;52.662;5.196;2023-04-19T08:30:03;102939.53;;;10.74;83.90
24788;BME280;12883;52.662;5.196;2023-04-19T08:32:28;102912.59;;;10.52;82.41
24788;BME280;12883;52.662;5.196;2023-04-19T08:34:54;102858.50;;;10.26;80.36
24788;BME280;12883;52.662;5.196;2023-04-19T08:37:19;102746.50;;;9.68;83.54
24788;BME280;12883;52.662;5.196;2023-04-19T08:39:45;102856.94;;;10.33;80.69
24788;BME280;12883;52.662;5.196;2023-04-19T08:42:10;103015.78;;;11.18;84.30
24788;BME280;12883;52.662;5.196;2023-04-19T08:44:36;103020.81;;;11.39;84.21
24788;BME280;12883;52.662;5.196;2023-04-19T08:47:05;103023.44;;;11.66;83.81
24788;BME280;12883;52.662;5.196;2023-04-19T08:49:34;103008.94;;;11.60;82.56
24788;BME280;12883;52.662;5.196;2023-04-19T08:52:03;103018.44;;;11.63;82.15
24788;BME280;12883;52.662;5.196;2023-04-19T08:54:29;102823.69;;;10.56;79.26
24788;BME280;12883;52.662;5.196;2023-04-19T08:56:58;102936.75;;;11.20;77.40
24788;BME280;12883;52.662;5.196;2023-04-19T08:59:24;102963.72;;;11.43;76.09
24788;BME280;12883;52.662;5.196;2023-04-19T09:01:49;102950.50;;;11.51;79.78
24788;BME280;12883;52.662;5.196;2023-04-19T09:04:15;102981.94;;;11.38;79.08
24788;BME280;12883;52.662;5.196;2023-04-19T09:06:40;102924.78;;;11.34;76.63
24788;BME280;12883;52.662;5.196;2023-04-19T09:09:17;102977.19;;;11.59;75.23
24788;BME280;12883;52.662;5.196;2023-04-19T09:11:42;102896.66;;;11.31;75.79
24788;BME280;12883;52.662;5.196;2023-04-19T09:14:13;102949.22;;;11.72;76.51
24788;BME280;12883;52.662;5.196;2023-04-19T09:16:38;102976.34;;;11.76;74.19
24788;BME280;12883;52.662;5.196;2023-04-19T09:19:05;102978.38;;;11.82;73.07
24788;BME280;12883;52.662;5.196;2023-04-19T09:21:31;102986.13;;;11.93;73.25
24788;BME280;12883;52.662;5.196;2023-04-19T09:23:58;102745.88;;;9.84;74.81
24788;BME280;12883;52.662;5.196;2023-04-19T09:26:24;102950.44;;;11.78;73.38
24788;BME280;12883;52.662;5.196;2023-04-19T09:29:00;102995.72;;;12.11;69.33
24788;BME280;12883;52.662;5.196;2023-04-19T09:31:34;102988.88;;;12.09;68.36
24788;BME280;12883;52.662;5.196;2023-04-19T09:34:17;102991.47;;;12.18;69.77
24788;BME280;12883;52.662;5.196;2023-04-19T09:36:43;102993.59;;;12.15;65.98
24788;BME280;12883;52.662;5.196;2023-04-19T09:39:08;103013.50;;;12.28;68.39
24788;BME280;12883;52.662;5.196;2023-04-19T09:41:35;103003.47;;;12.22;67.51
24788;BME280;12883;52.662;5.196;2023-04-19T09:44:14;102991.84;;;12.23;63.61
24788;BME280;12883;52.662;5.196;2023-04-19T09:46:40;102969.81;;;12.13;66.93
24788;BME280;12883;52.662;5.196;2023-04-19T09:51:49;102959.38;;;12.20;64.30
24788;BME280;12883;52.662;5.196;2023-04-19T09:54:17;102811.44;;;11.33;65.53
24788;BME280;12883;52.662;5.196;2023-04-19T09:56:43;102977.50;;;12.50;64.59
24788;BME280;12883;52.662;5.196;2023-04-19T09:59:09;102970.84;;;12.46;62.70
24788;BME280;12883;52.662;5.196;2023-04-19T10:01:51;102972.06;;;12.59;62.95
24788;BME280;12883;52.662;5.196;2023-04-19T10:04:19;102970.91;;;12.62;62.22
24788;BME280;12883;52.662;5.196;2023-04-19T10:06:53;102984.59;;;12.67;61.91
24788;BME280;12883;52.662;5.196;2023-04-19T10:09:20;102961.56;;;12.58;59.52
24788;BME280;12883;52.662;5.196;2023-04-19T10:11:50;102948.56;;;12.55;59.86
24788;BME280;12883;52.662;5.196;2023-04-19T10:14:22;102975.66;;;12.42;59.02
24788;BME280;12883;52.662;5.196;2023-04-19T10:16:52;102964.31;;;12.74;60.27
24788;BME280;12883;52.662;5.196;2023-04-19T10:19:19;102759.81;;;11.61;60.15
24788;BME280;12883;52.662;5.196;2023-04-19T10:21:46;102954.88;;;12.46;57.69
24788;BME280;12883;52.662;5.196;2023-04-19T10:24:14;102955.50;;;12.81;58.90
24788;BME280;12883;52.662;5.196;2023-04-19T10:32:17;102939.50;;;13.15;61.56
24788;BME280;12883;52.662;5.196;2023-04-19T10:34:44;102925.75;;;12.94;63.09
24788;BME280;12883;52.662;5.196;2023-04-19T10:37:15;102838.09;;;12.17;62.12
24788;BME280;12883;52.662;5.196;2023-04-19T10:39:41;102954.00;;;13.28;63.54
24788;BME280;12883;52.662;5.196;2023-04-19T10:42:07;102648.59;;;10.89;60.55
24788;BME280;12883;52.662;5.196;2023-04-19T10:44:32;102679.94;;;11.45;56.33
24788;BME280;12883;52.662;5.196;2023-04-19T10:46:58;102939.94;;;13.02;55.63
24788;BME280;12883;52.662;5.196;2023-04-19T10:49:25;102843.44;;;12.75;55.73
24788;BME280;12883;52.662;5.196;2023-04-19T10:51:50;102862.75;;;12.77;55.67
24788;BME280;12883;52.662;5.196;2023-04-19T10:54:33;102871.13;;;12.98;55.26
24788;BME280;12883;52.662;5.196;2023-04-19T10:57:09;102865.91;;;12.80;56.95
24788;BME280;12883;52.662;5.196;2023-04-19T10:59:38;102873.09;;;12.88;59.36
24788;BME280;12883;52.662;5.196;2023-04-19T11:07:13;102890.84;;;13.21;56.48
24788;BME280;12883;52.662;5.196;2023-04-19T11:09:44;102900.50;;;13.14;57.34
24788;BME280;12883;52.662;5.196;2023-04-19T11:12:15;102874.50;;;13.24;58.40
24788;BME280;12883;52.662;5.196;2023-04-19T11:14:42;102917.00;;;13.41;56.43
24788;BME280;12883;52.662;5.196;2023-04-19T11:17:28;102909.69;;;13.59;56.84
24788;BME280;12883;52.662;5.196;2023-04-19T11:19:57;102742.16;;;12.51;56.38
24788;BME280;12883;52.662;5.196;2023-04-19T11:24:54;102806.50;;;12.88;55.99
24788;BME280;12883;52.662;5.196;2023-04-19T11:27:20;102856.63;;;13.64;57.57
24788;BME280;12883;52.662;5.196;2023-04-19T11:29:45;102825.19;;;13.28;57.65
24788;BME280;12883;52.662;5.196;2023-04-19T11:32:10;102865.13;;;13.68;58.47
24788;BME280;12883;52.662;5.196;2023-04-19T11:34:37;102842.16;;;13.59;58.01
24788;BME280;12883;52.662;5.196;2023-04-19T11:37:02;102893.81;;;13.90;56.08
24788;BME280;12883;52.662;5.196;2023-04-19T11:39:28;102902.47;;;13.92;56.95
24788;BME280;12883;52.662;5.196;2023-04-19T11:41:53;102866.84;;;13.69;57.71
24788;BME280;12883;52.662;5.196;2023-04-19T11:44:19;102773.19;;;13.24;55.64
24788;BME280;12883;52.662;5.196;2023-04-19T11:47:02;102817.50;;;13.41;55.28
24788;BME280;12883;52.662;5.196;2023-04-19T11:49:29;102806.69;;;13.34;56.69
24788;BME280;12883;52.662;5.196;2023-04-19T11:51:59;102797.84;;;13.26;56.62
24788;BME280;12883;52.662;5.196;2023-04-19T11:54:25;102888.97;;;13.93;57.80
24788;BME280;12883;52.662;5.196;2023-04-19T11:57:00;102880.44;;;13.98;58.77
24788;BME280;12883;52.662;5.196;2023-04-19T11:59:27;102837.47;;;13.69;59.90
24788;BME280;12883;52.662;5.196;2023-04-19T12:01:53;102863.44;;;13.91;56.74
24788;BME280;12883;52.662;5.196;2023-04-19T12:04:19;102860.13;;;13.81;57.79
24788;BME280;12883;52.662;5.196;2023-04-19T12:06:55;102786.31;;;13.65;57.63
24788;BME280;12883;52.662;5.196;2023-04-19T12:09:20;102807.44;;;13.75;58.28
24788;BME280;12883;52.662;5.196;2023-04-19T12:11:47;102800.72;;;13.87;59.85
24788;BME280;12883;52.662;5.196;2023-04-19T12:14:16;102835.88;;;13.98;59.44
24788;BME280;12883;52.662;5.196;2023-04-19T12:17:05;102814.19;;;14.01;59.74
24788;BME280;12883;52.662;5.196;2023-04-19T12:19:36;102843.94;;;14.37;59.50
24788;BME280;12883;52.662;5.196;2023-04-19T12:22:09;102850.81;;;14.31;58.09
24788;BME280;12883;52.662;5.196;2023-04-19T12:24:36;102841.69;;;14.18;57.56
24788;BME280;12883;52.662;5.196;2023-04-19T12:27:01;102614.97;;;13.01;56.43
24788;BME280;12883;52.662;5.196;2023-04-19T12:29:26;102789.97;;;14.11;56.95
24788;BME280;12883;52.662;5.196;2023-04-19T12:31:52;102807.94;;;14.17;57.63
24788;BME280;12883;52.662;5.196;2023-04-19T12:34:17;102836.66;;;14.23;56.82
24788;BME280;12883;52.662;5.196;2023-04-19T12:36:43;102746.00;;;13.91;55.91
24788;BME280;12883;52.662;5.196;2023-04-19T12:39:08;102794.94;;;14.22;56.26
24788;BME280;12883;52.662;5.196;2023-04-19T12:41:34;102758.91;;;14.10;56.69
24788;BME280;12883;52.662;5.196;2023-04-19T12:43:59;102831.47;;;14.60;56.48
24788;BME280;12883;52.662;5.196;2023-04-19T12:46:24;102780.69;;;14.37;57.30
24788;BME280;12883;52.662;5.196;2023-04-19T12:48:50;102840.69;;;14.57;54.48
24788;BME280;12883;52.662;5.196;2023-04-19T12:51:15;102791.06;;;14.32;54.08
24788;BME280;12883;52.662;5.196;2023-04-19T12:53:46;102793.03;;;14.38;55.46
24788;BME280;12883;52.662;5.196;2023-04-19T12:56:13;102700.44;;;14.00;55.48
24788;BME280;12883;52.662;5.196;2023-04-19T12:58:40;102437.13;;;12.48;54.65
24788;BME280;12883;52.662;5.196;2023-04-19T13:01:05;102852.50;;;14.63;54.38